Terminal Aerodrome Forecast
Issued by NWS

Home | Current Version | Previous Version | Text Only | Print | Product List | Glossary On
Versions: 1 2 3 4 5 6 7 8 9 10 11 12 13 14 15 16 17 18 19 20 21
000
FTUS42 KFFC 310520
TAFPDK
TAF
KPDK 310520Z 3106/0106 06004KT P6SM BKN010 OVC020
      TEMPO 3106/3109 OVC008
     FM310900 06004KT 5SM BR OVC006
     FM311500 05005KT P6SM BKN010
     FM311700 VRB04KT P6SM BKN025
     FM311900 VRB04KT P6SM SCT040
     FM010000 00000KT P6SM SCT045 SCT250=

USA.gov is the U.S. government's official web portal to all federal, state and local government web resources and services.